Overview Statistics Trail Chart Weather Telemetry Raw packets
 

This is the latest recevied weather packets stored in our database for station/object N0HOT. If no packets are shown the sender has not sent any weather packets the latest 10 day(s).

<< 96 97 98 99 100 101 102 >>
Time Temp. Humidity Pressure Rain* Wind** Luminosity Snow
1787934794 25° C 56% 1020.5 hPa 0 mm - 568 W/m² -
1787934492 24.44° C 57% 1020.5 hPa 0 mm - 550 W/m² -
1787934187 24.44° C 57% 1020.5 hPa 0 mm - 542 W/m² -
1787933894 23.89° C 56% 1020.5 hPa 0 mm - 681 W/m² -
1787933586 23.89° C 57% 1020.8 hPa 0 mm - 668 W/m² -
1787933281 23.33° C 59% 1020.5 hPa 0 mm - 615 W/m² -
1787932981 22.78° C 60% 1020.1 hPa 0 mm - 569 W/m² -
1787932680 22.78° C 60% 1020.8 hPa 0 mm - 587 W/m² -
1787932379 22.22° C 64% 1020.8 hPa 0 mm - 209 W/m² -
1787932074 21.67° C 64% 1020.8 hPa 0 mm - 524 W/m² -
1787931773 21.11° C 66% 1020.8 hPa 0 mm - 580 W/m² -
1787931468 20.56° C 64% 1020.5 hPa 0 mm - 325 W/m² -
1787931162 20° C 68% 1020.8 hPa 0 mm - 549 W/m² -
1787930862 19.44° C 69% 1020.8 hPa 0 mm - 129 W/m² -
1787930562 18.89° C 71% 1020.8 hPa 0 mm - 569 W/m² -
1787930257 18.33° C 76% 1020.8 hPa 0 mm - 554 W/m² -
1787929956 17.78° C 80% 1020.8 hPa 0 mm - 650 W/m² -
1787929655 17.22° C 82% 1020.5 hPa 0 mm - 489 W/m² -
1787929350 16.67° C 85% 1020.8 hPa 0 mm - 79 W/m² -
1787929048 16.67° C 86% 1021.2 hPa 0 mm - 291 W/m² -
1787928744 16.11° C 87% 1020.8 hPa 0 mm - 129 W/m² -
1787928442 15.56° C 88% 1020.8 hPa 0 mm - 57 W/m² -
1787928141 15.56° C 88% 1020.8 hPa 0 mm - 43 W/m² -
1787927841 15.56° C 88% 1020.8 hPa 0 mm - 39 W/m² -
1787927535 15° C 88% 1020.8 hPa 0 mm - 45 W/m² -

* Rain latest hour (hover to see other rain measurements)
** Current wind speed in m/s (hover to see current wind gust speed)